sensor_id;sensor_type;location;lat;lon;timestamp;pressure;altitude;pressure_sealevel;temperature;humidity
77979;BME280;67169;50.268;8.694;2023-06-26T00:01:45;99514.69;;;17.41;71.44
77979;BME280;67169;50.268;8.694;2023-06-26T00:04:11;99534.69;;;17.53;71.42
77979;BME280;67169;50.268;8.694;2023-06-26T00:06:41;99516.41;;;17.42;71.63
77979;BME280;67169;50.268;8.694;2023-06-26T00:09:08;99516.72;;;17.50;71.70
77979;BME280;67169;50.268;8.694;2023-06-26T00:11:34;99525.13;;;17.60;71.39
77979;BME280;67169;50.268;8.694;2023-06-26T00:14:01;99522.19;;;17.63;71.58
77979;BME280;67169;50.268;8.694;2023-06-26T00:16:28;99526.19;;;17.58;72.09
77979;BME280;67169;50.268;8.694;2023-06-26T00:18:56;99504.44;;;17.32;72.54
77979;BME280;67169;50.268;8.694;2023-06-26T00:21:23;99529.16;;;17.42;72.46
77979;BME280;67169;50.268;8.694;2023-06-26T00:23:51;99539.56;;;17.35;72.56
77979;BME280;67169;50.268;8.694;2023-06-26T00:26:18;99520.97;;;17.29;72.76
77979;BME280;67169;50.268;8.694;2023-06-26T00:28:44;99533.78;;;17.27;73.05
77979;BME280;67169;50.268;8.694;2023-06-26T00:31:11;99529.78;;;17.32;72.87
77979;BME280;67169;50.268;8.694;2023-06-26T00:33:37;99533.81;;;17.40;72.66
77979;BME280;67169;50.268;8.694;2023-06-26T00:36:04;99523.59;;;17.43;72.39
77979;BME280;67169;50.268;8.694;2023-06-26T00:38:31;99525.09;;;17.47;72.41
77979;BME280;67169;50.268;8.694;2023-06-26T00:40:59;99510.31;;;17.26;72.73
77979;BME280;67169;50.268;8.694;2023-06-26T00:43:25;99530.41;;;17.23;73.15
77979;BME280;67169;50.268;8.694;2023-06-26T00:45:52;99523.56;;;17.18;73.48
77979;BME280;67169;50.268;8.694;2023-06-26T00:48:18;99519.75;;;17.07;73.64
77979;BME280;67169;50.268;8.694;2023-06-26T00:50:45;99519.84;;;17.06;73.65
77979;BME280;67169;50.268;8.694;2023-06-26T00:53:12;99530.63;;;17.07;73.72
77979;BME280;67169;50.268;8.694;2023-06-26T00:55:38;99522.88;;;17.01;73.67
77979;BME280;67169;50.268;8.694;2023-06-26T00:58:06;99518.84;;;16.94;74.65
77979;BME280;67169;50.268;8.694;2023-06-26T01:00:33;99511.97;;;16.89;74.76
77979;BME280;67169;50.268;8.694;2023-06-26T01:03:00;99503.81;;;16.76;74.99
77979;BME280;67169;50.268;8.694;2023-06-26T01:05:26;99508.47;;;16.59;75.50
77979;BME280;67169;50.268;8.694;2023-06-26T01:07:54;99499.47;;;16.59;76.11
77979;BME280;67169;50.268;8.694;2023-06-26T01:10:20;99497.38;;;16.50;76.38
77979;BME280;67169;50.268;8.694;2023-06-26T01:12:47;99490.81;;;16.40;76.21
77979;BME280;67169;50.268;8.694;2023-06-26T01:15:15;99504.94;;;16.45;76.58
77979;BME280;67169;50.268;8.694;2023-06-26T01:17:42;99500.88;;;16.37;76.26
77979;BME280;67169;50.268;8.694;2023-06-26T01:20:13;99503.41;;;16.41;76.58
77979;BME280;67169;50.268;8.694;2023-06-26T01:22:47;99493.91;;;16.33;76.75
77979;BME280;67169;50.268;8.694;2023-06-26T01:25:21;99496.16;;;16.27;76.95
77979;BME280;67169;50.268;8.694;2023-06-26T01:27:53;99487.75;;;16.17;77.47
77979;BME280;67169;50.268;8.694;2023-06-26T01:30:21;99472.75;;;16.11;77.62
77979;BME280;67169;50.268;8.694;2023-06-26T01:32:49;99488.34;;;16.22;77.17
77979;BME280;67169;50.268;8.694;2023-06-26T01:35:16;99492.59;;;16.26;76.85
77979;BME280;67169;50.268;8.694;2023-06-26T01:37:43;99498.88;;;16.27;77.11
77979;BME280;67169;50.268;8.694;2023-06-26T01:40:10;99496.34;;;16.24;77.32
77979;BME280;67169;50.268;8.694;2023-06-26T01:42:37;99481.66;;;16.13;77.24
77979;BME280;67169;50.268;8.694;2023-06-26T01:45:09;99475.56;;;16.10;77.19
77979;BME280;67169;50.268;8.694;2023-06-26T01:47:41;99456.75;;;16.07;76.68
77979;BME280;67169;50.268;8.694;2023-06-26T01:50:12;99482.03;;;16.22;76.67
77979;BME280;67169;50.268;8.694;2023-06-26T01:52:43;99481.25;;;16.20;77.02
77979;BME280;67169;50.268;8.694;2023-06-26T01:55:16;99459.59;;;16.05;77.36
77979;BME280;67169;50.268;8.694;2023-06-26T01:57:45;99437.34;;;15.86;77.49
77979;BME280;67169;50.268;8.694;2023-06-26T02:00:16;99474.69;;;16.09;77.65
77979;BME280;67169;50.268;8.694;2023-06-26T02:02:44;99469.59;;;16.05;77.40
77979;BME280;67169;50.268;8.694;2023-06-26T02:05:11;99471.22;;;16.07;77.75
77979;BME280;67169;50.268;8.694;2023-06-26T02:07:38;99465.03;;;16.05;77.75
77979;BME280;67169;50.268;8.694;2023-06-26T02:10:06;99468.13;;;15.99;78.15
77979;BME280;67169;50.268;8.694;2023-06-26T02:12:32;99468.13;;;15.99;77.79
77979;BME280;67169;50.268;8.694;2023-06-26T02:14:59;99480.06;;;15.97;77.82
77979;BME280;67169;50.268;8.694;2023-06-26T02:17:27;99472.00;;;15.95;78.39
77979;BME280;67169;50.268;8.694;2023-06-26T02:19:53;99473.94;;;15.93;78.38
77979;BME280;67169;50.268;8.694;2023-06-26T02:22:20;99476.09;;;15.88;78.54
77979;BME280;67169;50.268;8.694;2023-06-26T02:24:46;99466.69;;;15.79;78.55
77979;BME280;67169;50.268;8.694;2023-06-26T02:27:13;99475.44;;;15.84;78.79
77979;BME280;67169;50.268;8.694;2023-06-26T02:29:40;99480.75;;;15.86;79.13
77979;BME280;67169;50.268;8.694;2023-06-26T02:32:07;99471.38;;;15.77;79.31
77979;BME280;67169;50.268;8.694;2023-06-26T02:34:35;99475.81;;;15.78;79.37
77979;BME280;67169;50.268;8.694;2023-06-26T02:37:02;99469.72;;;15.75;79.53
77979;BME280;67169;50.268;8.694;2023-06-26T02:39:31;99459.16;;;15.56;79.67
77979;BME280;67169;50.268;8.694;2023-06-26T02:41:58;99482.59;;;15.71;79.80
77979;BME280;67169;50.268;8.694;2023-06-26T02:44:24;99474.53;;;15.55;80.23
77979;BME280;67169;50.268;8.694;2023-06-26T02:46:52;99476.28;;;15.56;80.28
77979;BME280;67169;50.268;8.694;2023-06-26T02:49:18;99467.38;;;15.54;80.65
77979;BME280;67169;50.268;8.694;2023-06-26T02:51:46;99465.44;;;15.56;80.43
77979;BME280;67169;50.268;8.694;2023-06-26T02:54:13;99468.03;;;15.58;80.53
77979;BME280;67169;50.268;8.694;2023-06-26T02:56:39;99466.31;;;15.57;80.41
77979;BME280;67169;50.268;8.694;2023-06-26T02:59:06;99475.81;;;15.50;80.71
77979;BME280;67169;50.268;8.694;2023-06-26T03:01:33;99456.22;;;15.44;80.95
77979;BME280;67169;50.268;8.694;2023-06-26T03:03:59;99462.75;;;15.42;81.01
77979;BME280;67169;50.268;8.694;2023-06-26T03:06:26;99464.84;;;15.37;81.46
77979;BME280;67169;50.268;8.694;2023-06-26T03:08:54;99461.47;;;15.19;81.94
77979;BME280;67169;50.268;8.694;2023-06-26T03:11:21;99459.03;;;15.14;82.29
77979;BME280;67169;50.268;8.694;2023-06-26T03:13:48;99454.31;;;15.18;82.14
77979;BME280;67169;50.268;8.694;2023-06-26T03:16:14;99462.50;;;15.16;82.43
77979;BME280;67169;50.268;8.694;2023-06-26T03:18:41;99461.75;;;15.29;81.82
77979;BME280;67169;50.268;8.694;2023-06-26T03:21:08;99455.19;;;15.33;81.83
77979;BME280;67169;50.268;8.694;2023-06-26T03:23:35;99448.69;;;15.21;81.96
77979;BME280;67169;50.268;8.694;2023-06-26T03:26:03;99448.97;;;15.16;82.37
77979;BME280;67169;50.268;8.694;2023-06-26T03:28:29;99449.94;;;15.15;82.25
77979;BME280;67169;50.268;8.694;2023-06-26T03:30:57;99442.97;;;15.11;82.39
77979;BME280;67169;50.268;8.694;2023-06-26T03:33:24;99437.06;;;15.05;82.64
77979;BME280;67169;50.268;8.694;2023-06-26T03:35:51;99444.03;;;15.09;82.55
77979;BME280;67169;50.268;8.694;2023-06-26T03:38:17;99435.41;;;15.02;82.65
77979;BME280;67169;50.268;8.694;2023-06-26T03:40:44;99444.72;;;15.12;82.64
77979;BME280;67169;50.268;8.694;2023-06-26T03:43:12;99442.78;;;15.14;82.55
77979;BME280;67169;50.268;8.694;2023-06-26T03:45:38;99451.84;;;15.13;82.72
77979;BME280;67169;50.268;8.694;2023-06-26T03:48:05;99381.41;;;14.85;82.61
77979;BME280;67169;50.268;8.694;2023-06-26T03:50:33;99439.28;;;15.27;82.39
77979;BME280;67169;50.268;8.694;2023-06-26T03:52:59;99443.06;;;15.24;82.48
77979;BME280;67169;50.268;8.694;2023-06-26T03:55:26;99450.31;;;15.24;82.80
77979;BME280;67169;50.268;8.694;2023-06-26T03:57:52;99454.69;;;15.26;82.82
77979;BME280;67169;50.268;8.694;2023-06-26T04:00:20;99453.13;;;15.22;83.00
77979;BME280;67169;50.268;8.694;2023-06-26T04:02:47;99437.19;;;15.17;82.99
77979;BME280;67169;50.268;8.694;2023-06-26T04:05:14;99444.16;;;15.22;83.21
77979;BME280;67169;50.268;8.694;2023-06-26T04:07:42;99447.44;;;15.27;83.22
77979;BME280;67169;50.268;8.694;2023-06-26T04:10:09;99448.50;;;15.38;82.90
77979;BME280;67169;50.268;8.694;2023-06-26T04:12:36;99452.66;;;15.44;82.78
77979;BME280;67169;50.268;8.694;2023-06-26T04:15:02;99444.81;;;15.54;82.50
77979;BME280;67169;50.268;8.694;2023-06-26T04:17:30;99447.16;;;15.60;82.56
77979;BME280;67169;50.268;8.694;2023-06-26T04:19:57;99452.38;;;15.77;81.93
77979;BME280;67169;50.268;8.694;2023-06-26T04:22:23;99460.50;;;15.92;81.69
77979;BME280;67169;50.268;8.694;2023-06-26T04:24:51;99455.66;;;15.97;81.55
77979;BME280;67169;50.268;8.694;2023-06-26T04:27:17;99444.91;;;15.95;81.13
77979;BME280;67169;50.268;8.694;2023-06-26T04:29:44;99462.13;;;16.08;81.43
77979;BME280;67169;50.268;8.694;2023-06-26T04:32:11;99459.28;;;16.10;81.71
77979;BME280;67169;50.268;8.694;2023-06-26T04:34:39;99468.47;;;16.22;81.58
77979;BME280;67169;50.268;8.694;2023-06-26T04:37:09;99459.63;;;16.32;81.32
77979;BME280;67169;50.268;8.694;2023-06-26T04:39:35;99460.63;;;16.44;81.17
77979;BME280;67169;50.268;8.694;2023-06-26T04:42:04;99457.97;;;16.57;80.52
77979;BME280;67169;50.268;8.694;2023-06-26T04:44:30;99470.41;;;16.74;80.13
77979;BME280;67169;50.268;8.694;2023-06-26T04:46:57;99471.88;;;16.92;79.97
77979;BME280;67169;50.268;8.694;2023-06-26T04:49:23;99460.50;;;17.13;78.30
77979;BME280;67169;50.268;8.694;2023-06-26T04:51:51;99468.78;;;17.49;76.86
77979;BME280;67169;50.268;8.694;2023-06-26T04:54:18;99466.78;;;17.64;75.55
77979;BME280;67169;50.268;8.694;2023-06-26T04:56:45;99478.13;;;17.96;74.25
77979;BME280;67169;50.268;8.694;2023-06-26T04:59:12;99461.94;;;18.06;73.26
77979;BME280;67169;50.268;8.694;2023-06-26T05:01:39;99487.25;;;18.32;72.89
77979;BME280;67169;50.268;8.694;2023-06-26T05:04:06;99482.09;;;18.40;72.42
77979;BME280;67169;50.268;8.694;2023-06-26T05:06:33;99480.56;;;18.49;72.15
77979;BME280;67169;50.268;8.694;2023-06-26T05:09:01;99470.09;;;18.67;71.34
77979;BME280;67169;50.268;8.694;2023-06-26T05:11:27;99460.94;;;18.68;70.91
77979;BME280;67169;50.268;8.694;2023-06-26T05:13:54;99480.69;;;18.71;70.82
77979;BME280;67169;50.268;8.694;2023-06-26T05:16:20;99501.38;;;18.74;70.86
77979;BME280;67169;50.268;8.694;2023-06-26T05:18:47;99478.59;;;18.75;70.48
77979;BME280;67169;50.268;8.694;2023-06-26T05:21:15;99457.91;;;18.72;70.52
77979;BME280;67169;50.268;8.694;2023-06-26T05:23:42;99469.34;;;18.89;70.60
77979;BME280;67169;50.268;8.694;2023-06-26T05:26:11;99472.75;;;19.04;70.71
77979;BME280;67169;50.268;8.694;2023-06-26T05:28:39;99477.13;;;19.17;70.29
77979;BME280;67169;50.268;8.694;2023-06-26T05:31:06;99475.66;;;19.25;69.91
77979;BME280;67169;50.268;8.694;2023-06-26T05:33:35;99469.84;;;19.29;69.28
77979;BME280;67169;50.268;8.694;2023-06-26T05:36:04;99469.13;;;19.38;69.75
77979;BME280;67169;50.268;8.694;2023-06-26T05:38:31;99453.63;;;19.39;68.65
77979;BME280;67169;50.268;8.694;2023-06-26T05:40:58;99466.66;;;19.58;68.50
77979;BME280;67169;50.268;8.694;2023-06-26T05:43:26;99464.31;;;19.64;68.22
77979;BME280;67169;50.268;8.694;2023-06-26T05:45:53;99466.94;;;19.77;68.05
77979;BME280;67169;50.268;8.694;2023-06-26T05:48:19;99470.16;;;19.94;68.15
77979;BME280;67169;50.268;8.694;2023-06-26T05:50:46;99464.91;;;20.13;67.54
77979;BME280;67169;50.268;8.694;2023-06-26T05:53:13;99465.28;;;20.20;66.90
77979;BME280;67169;50.268;8.694;2023-06-26T05:55:41;99459.75;;;20.10;66.40
77979;BME280;67169;50.268;8.694;2023-06-26T05:58:09;99473.13;;;20.24;67.25
77979;BME280;67169;50.268;8.694;2023-06-26T06:00:38;99465.38;;;20.29;66.73
77979;BME280;67169;50.268;8.694;2023-06-26T06:03:05;99483.97;;;20.47;66.10
77979;BME280;67169;50.268;8.694;2023-06-26T06:05:32;99460.25;;;20.47;66.12
77979;BME280;67169;50.268;8.694;2023-06-26T06:07:58;99473.78;;;20.60;66.37
77979;BME280;67169;50.268;8.694;2023-06-26T06:10:25;99463.81;;;20.70;64.74
77979;BME280;67169;50.268;8.694;2023-06-26T06:12:51;99463.94;;;20.69;64.74
77979;BME280;67169;50.268;8.694;2023-06-26T06:15:19;99457.09;;;20.74;65.27
77979;BME280;67169;50.268;8.694;2023-06-26T06:17:47;99451.97;;;20.81;65.58
77979;BME280;67169;50.268;8.694;2023-06-26T06:20:14;99456.38;;;20.93;65.33
77979;BME280;67169;50.268;8.694;2023-06-26T06:22:40;99464.41;;;21.06;64.30
77979;BME280;67169;50.268;8.694;2023-06-26T06:25:08;99469.13;;;21.04;64.73
77979;BME280;67169;50.268;8.694;2023-06-26T06:27:34;99468.81;;;21.18;63.94
77979;BME280;67169;50.268;8.694;2023-06-26T06:30:01;99464.00;;;21.31;64.23
77979;BME280;67169;50.268;8.694;2023-06-26T06:32:28;99468.72;;;21.41;63.95
77979;BME280;67169;50.268;8.694;2023-06-26T06:34:56;99477.28;;;21.57;63.80
77979;BME280;67169;50.268;8.694;2023-06-26T06:37:22;99475.44;;;21.58;63.39
77979;BME280;67169;50.268;8.694;2023-06-26T06:39:49;99458.44;;;21.64;63.09
77979;BME280;67169;50.268;8.694;2023-06-26T06:42:15;99462.25;;;21.72;63.53
77979;BME280;67169;50.268;8.694;2023-06-26T06:44:42;99460.59;;;21.91;63.85
77979;BME280;67169;50.268;8.694;2023-06-26T06:47:08;99453.16;;;22.02;62.70
77979;BME280;67169;50.268;8.694;2023-06-26T06:49:35;99449.34;;;22.24;62.28
77979;BME280;67169;50.268;8.694;2023-06-26T06:52:03;99455.84;;;22.33;62.55
77979;BME280;67169;50.268;8.694;2023-06-26T06:54:30;99456.31;;;22.48;62.29
77979;BME280;67169;50.268;8.694;2023-06-26T06:56:56;99454.44;;;22.78;59.49
77979;BME280;67169;50.268;8.694;2023-06-26T06:59:23;99470.78;;;22.98;57.54
77979;BME280;67169;50.268;8.694;2023-06-26T07:01:50;99470.50;;;23.11;57.38
77979;BME280;67169;50.268;8.694;2023-06-26T07:04:16;99464.84;;;23.22;54.51
77979;BME280;67169;50.268;8.694;2023-06-26T07:06:43;99464.84;;;23.32;54.12
77979;BME280;67169;50.268;8.694;2023-06-26T07:09:11;99453.56;;;23.35;52.03
77979;BME280;67169;50.268;8.694;2023-06-26T07:11:37;99460.75;;;23.56;51.39
77979;BME280;67169;50.268;8.694;2023-06-26T07:14:04;99458.16;;;23.54;51.82
77979;BME280;67169;50.268;8.694;2023-06-26T07:16:30;99448.91;;;23.55;50.80
77979;BME280;67169;50.268;8.694;2023-06-26T07:18:57;99459.84;;;23.65;51.84
77979;BME280;67169;50.268;8.694;2023-06-26T07:21:23;99462.41;;;23.86;51.12
77979;BME280;67169;50.268;8.694;2023-06-26T07:23:50;99463.59;;;23.74;50.04
77979;BME280;67169;50.268;8.694;2023-06-26T07:26:18;99472.50;;;23.95;50.10
77979;BME280;67169;50.268;8.694;2023-06-26T07:28:44;99464.59;;;23.82;49.89
77979;BME280;67169;50.268;8.694;2023-06-26T07:31:11;99473.00;;;24.08;49.91
77979;BME280;67169;50.268;8.694;2023-06-26T07:33:37;99457.53;;;24.07;49.86
77979;BME280;67169;50.268;8.694;2023-06-26T07:36:04;99461.09;;;24.17;49.63
77979;BME280;67169;50.268;8.694;2023-06-26T07:38:31;99461.63;;;24.31;49.36
77979;BME280;67169;50.268;8.694;2023-06-26T07:40:58;99448.41;;;24.44;49.34
77979;BME280;67169;50.268;8.694;2023-06-26T07:43:26;99462.97;;;24.72;49.18
77979;BME280;67169;50.268;8.694;2023-06-26T07:45:52;99465.56;;;24.92;47.42
77979;BME280;67169;50.268;8.694;2023-06-26T07:48:19;99455.00;;;25.05;47.67
77979;BME280;67169;50.268;8.694;2023-06-26T07:50:46;99462.03;;;25.17;46.53
77979;BME280;67169;50.268;8.694;2023-06-26T07:53:12;99453.03;;;25.33;46.81
77979;BME280;67169;50.268;8.694;2023-06-26T07:55:39;99459.78;;;25.65;45.45
77979;BME280;67169;50.268;8.694;2023-06-26T07:58:05;99451.16;;;25.60;45.78
77979;BME280;67169;50.268;8.694;2023-06-26T08:00:33;99452.50;;;25.55;46.33
77979;BME280;67169;50.268;8.694;2023-06-26T08:03:00;99453.03;;;25.59;46.23
77979;BME280;67169;50.268;8.694;2023-06-26T08:05:26;99442.13;;;25.75;45.85
77979;BME280;67169;50.268;8.694;2023-06-26T08:07:53;99407.47;;;25.65;45.63
77979;BME280;67169;50.268;8.694;2023-06-26T08:10:19;99465.28;;;26.17;44.44
77979;BME280;67169;50.268;8.694;2023-06-26T08:12:46;99445.78;;;26.10;45.09
77979;BME280;67169;50.268;8.694;2023-06-26T08:15:15;99450.63;;;26.16;44.80
77979;BME280;67169;50.268;8.694;2023-06-26T08:17:43;99443.84;;;26.02;45.55
77979;BME280;67169;50.268;8.694;2023-06-26T08:20:11;99451.72;;;25.97;45.27
77979;BME280;67169;50.268;8.694;2023-06-26T08:22:38;99466.00;;;25.93;45.39
77979;BME280;67169;50.268;8.694;2023-06-26T08:25:05;99474.53;;;26.08;45.41
77979;BME280;67169;50.268;8.694;2023-06-26T08:27:32;99460.59;;;26.09;45.57
77979;BME280;67169;50.268;8.694;2023-06-26T08:29:59;99463.13;;;26.02;45.74
77979;BME280;67169;50.268;8.694;2023-06-26T08:32:25;99463.38;;;25.83;46.64
77979;BME280;67169;50.268;8.694;2023-06-26T08:34:53;99459.63;;;25.66;46.86
77979;BME280;67169;50.268;8.694;2023-06-26T08:37:20;99453.56;;;25.63;47.40
77979;BME280;67169;50.268;8.694;2023-06-26T08:39:47;99464.16;;;25.49;47.87
77979;BME280;67169;50.268;8.694;2023-06-26T08:42:14;99474.81;;;25.44;48.04
77979;BME280;67169;50.268;8.694;2023-06-26T08:44:40;99475.50;;;25.46;48.55
77979;BME280;67169;50.268;8.694;2023-06-26T08:47:07;99486.44;;;25.82;45.34
77979;BME280;67169;50.268;8.694;2023-06-26T08:49:42;99475.47;;;26.24;42.23
77979;BME280;67169;50.268;8.694;2023-06-26T08:52:17;99480.84;;;26.34;40.39
77979;BME280;67169;50.268;8.694;2023-06-26T08:54:46;99473.28;;;26.44;41.15
77979;BME280;67169;50.268;8.694;2023-06-26T08:57:15;99462.38;;;26.26;41.81
77979;BME280;67169;50.268;8.694;2023-06-26T08:59:44;99485.84;;;26.97;42.18
77979;BME280;67169;50.268;8.694;2023-06-26T09:02:12;99492.56;;;28.09;39.75
77979;BME280;67169;50.268;8.694;2023-06-26T09:04:40;99482.69;;;28.15;39.24
77979;BME280;67169;50.268;8.694;2023-06-26T09:07:07;99485.88;;;28.35;38.79
77979;BME280;67169;50.268;8.694;2023-06-26T09:09:35;99479.59;;;28.10;38.82
77979;BME280;67169;50.268;8.694;2023-06-26T09:12:03;99480.19;;;27.64;39.31
77979;BME280;67169;50.268;8.694;2023-06-26T09:14:30;99479.00;;;27.51;40.45
77979;BME280;67169;50.268;8.694;2023-06-26T09:16:57;99475.50;;;26.99;40.81
77979;BME280;67169;50.268;8.694;2023-06-26T09:19:23;99476.16;;;26.61;42.52
77979;BME280;67169;50.268;8.694;2023-06-26T09:21:50;99475.00;;;26.45;44.08
77979;BME280;67169;50.268;8.694;2023-06-26T09:24:17;99475.31;;;26.34;43.81
77979;BME280;67169;50.268;8.694;2023-06-26T09:26:45;99485.63;;;26.24;43.61
77979;BME280;67169;50.268;8.694;2023-06-26T09:29:13;99469.34;;;26.04;44.27
77979;BME280;67169;50.268;8.694;2023-06-26T09:31:40;99481.47;;;26.54;43.71
77979;BME280;67169;50.268;8.694;2023-06-26T09:34:08;99486.75;;;27.06;44.53
77979;BME280;67169;50.268;8.694;2023-06-26T09:36:35;99474.41;;;26.60;44.22
77979;BME280;67169;50.268;8.694;2023-06-26T09:39:02;99485.44;;;26.60;44.38
77979;BME280;67169;50.268;8.694;2023-06-26T09:41:29;99489.91;;;26.52;44.15
77979;BME280;67169;50.268;8.694;2023-06-26T09:44:01;99489.84;;;26.95;42.34
77979;BME280;67169;50.268;8.694;2023-06-26T09:46:29;99495.22;;;27.78;42.59
77979;BME280;67169;50.268;8.694;2023-06-26T09:49:01;99448.75;;;27.82;41.61
77979;BME280;67169;50.268;8.694;2023-06-26T09:51:29;99504.97;;;28.13;42.01
77979;BME280;67169;50.268;8.694;2023-06-26T09:53:55;99504.72;;;27.27;42.73
77979;BME280;67169;50.268;8.694;2023-06-26T09:56:22;99512.81;;;27.12;43.07
77979;BME280;67169;50.268;8.694;2023-06-26T09:58:49;99508.34;;;27.27;43.12
77979;BME280;67169;50.268;8.694;2023-06-26T10:01:18;99524.25;;;27.58;42.55
77979;BME280;67169;50.268;8.694;2023-06-26T10:03:45;99533.53;;;27.73;42.26
77979;BME280;67169;50.268;8.694;2023-06-26T10:06:12;99529.91;;;27.73;42.41
77979;BME280;67169;50.268;8.694;2023-06-26T10:08:39;99519.56;;;27.83;42.03
77979;BME280;67169;50.268;8.694;2023-06-26T10:11:08;99507.66;;;27.41;43.31
77979;BME280;67169;50.268;8.694;2023-06-26T10:13:39;99521.59;;;27.07;44.67
77979;BME280;67169;50.268;8.694;2023-06-26T10:16:11;99516.22;;;26.81;45.60
77979;BME280;67169;50.268;8.694;2023-06-26T10:18:40;99514.22;;;27.32;44.51
77979;BME280;67169;50.268;8.694;2023-06-26T10:21:07;99523.03;;;27.77;41.94
77979;BME280;67169;50.268;8.694;2023-06-26T10:23:36;99517.63;;;27.10;44.85
77979;BME280;67169;50.268;8.694;2023-06-26T10:26:06;99521.47;;;27.17;44.37
77979;BME280;67169;50.268;8.694;2023-06-26T10:28:33;99518.19;;;27.21;44.16
77979;BME280;67169;50.268;8.694;2023-06-26T10:31:02;99515.94;;;27.58;43.12
77979;BME280;67169;50.268;8.694;2023-06-26T10:33:30;99519.06;;;27.30;44.42
77979;BME280;67169;50.268;8.694;2023-06-26T10:38:54;99513.53;;;27.38;43.67
77979;BME280;67169;50.268;8.694;2023-06-26T10:41:21;99512.44;;;27.97;41.98
77979;BME280;67169;50.268;8.694;2023-06-26T10:43:49;99510.38;;;27.99;41.08
77979;BME280;67169;50.268;8.694;2023-06-26T10:46:18;99511.31;;;28.38;39.74
77979;BME280;67169;50.268;8.694;2023-06-26T10:48:56;99515.38;;;28.11;40.05
77979;BME280;67169;50.268;8.694;2023-06-26T10:51:23;99517.94;;;28.13;40.53
77979;BME280;67169;50.268;8.694;2023-06-26T10:53:55;99511.94;;;28.88;38.70
77979;BME280;67169;50.268;8.694;2023-06-26T10:56:40;99515.91;;;29.17;38.24
77979;BME280;67169;50.268;8.694;2023-06-26T10:59:15;99521.00;;;29.51;38.32
77979;BME280;67169;50.268;8.694;2023-06-26T11:01:43;99522.53;;;28.76;38.70
77979;BME280;67169;50.268;8.694;2023-06-26T11:04:10;99514.91;;;27.59;41.08
77979;BME280;67169;50.268;8.694;2023-06-26T11:06:38;99520.63;;;28.37;40.73
77979;BME280;67169;50.268;8.694;2023-06-26T11:09:10;99512.31;;;28.37;41.18
77979;BME280;67169;50.268;8.694;2023-06-26T11:11:56;99519.75;;;27.81;41.37
77979;BME280;67169;50.268;8.694;2023-06-26T11:14:30;99528.50;;;28.65;40.53
77979;BME280;67169;50.268;8.694;2023-06-26T11:16:57;99527.00;;;28.54;39.96
77979;BME280;67169;50.268;8.694;2023-06-26T11:19:26;99531.84;;;28.83;39.88
77979;BME280;67169;50.268;8.694;2023-06-26T11:21:58;99530.72;;;28.14;39.78
77979;BME280;67169;50.268;8.694;2023-06-26T11:24:28;99549.19;;;28.22;40.95
77979;BME280;67169;50.268;8.694;2023-06-26T11:27:00;99547.06;;;28.88;39.84
77979;BME280;67169;50.268;8.694;2023-06-26T11:29:27;99542.41;;;29.19;38.85
77979;BME280;67169;50.268;8.694;2023-06-26T11:31:59;99537.91;;;28.48;38.56
77979;BME280;67169;50.268;8.694;2023-06-26T11:34:29;99541.66;;;28.94;38.18
77979;BME280;67169;50.268;8.694;2023-06-26T11:36:56;99540.53;;;28.25;39.11
77979;BME280;67169;50.268;8.694;2023-06-26T11:39:23;99547.38;;;28.93;39.36
77979;BME280;67169;50.268;8.694;2023-06-26T11:41:51;99549.75;;;29.04;38.72
77979;BME280;67169;50.268;8.694;2023-06-26T11:44:18;99534.81;;;28.34;39.79
77979;BME280;67169;50.268;8.694;2023-06-26T11:46:45;99545.28;;;27.75;40.14
77979;BME280;67169;50.268;8.694;2023-06-26T11:49:16;99549.47;;;27.47;40.59
77979;BME280;67169;50.268;8.694;2023-06-26T11:51:42;99557.25;;;27.76;40.72
77979;BME280;67169;50.268;8.694;2023-06-26T11:54:09;99557.22;;;28.08;41.23
77979;BME280;67169;50.268;8.694;2023-06-26T11:56:37;99559.34;;;28.46;39.74
77979;BME280;67169;50.268;8.694;2023-06-26T11:59:06;99563.41;;;28.66;39.49
77979;BME280;67169;50.268;8.694;2023-06-26T12:01:35;99557.44;;;28.38;39.98
77979;BME280;67169;50.268;8.694;2023-06-26T12:04:03;99568.09;;;27.44;41.47
77979;BME280;67169;50.268;8.694;2023-06-26T12:06:32;99552.81;;;26.99;42.69
77979;BME280;67169;50.268;8.694;2023-06-26T12:09:01;99577.09;;;27.79;42.17
77979;BME280;67169;50.268;8.694;2023-06-26T12:11:29;99583.63;;;28.75;38.74
77979;BME280;67169;50.268;8.694;2023-06-26T12:13:56;99564.72;;;28.47;40.54
77979;BME280;67169;50.268;8.694;2023-06-26T12:16:24;99570.78;;;27.12;42.31
77979;BME280;67169;50.268;8.694;2023-06-26T12:18:58;99572.59;;;26.87;42.91
77979;BME280;67169;50.268;8.694;2023-06-26T12:21:27;99568.91;;;26.70;43.60
77979;BME280;67169;50.268;8.694;2023-06-26T12:23:58;99588.41;;;26.60;44.32
77979;BME280;67169;50.268;8.694;2023-06-26T12:26:25;99575.44;;;26.26;45.09
77979;BME280;67169;50.268;8.694;2023-06-26T12:28:52;99575.69;;;26.75;43.88
77979;BME280;67169;50.268;8.694;2023-06-26T12:31:21;99572.91;;;26.67;43.78
77979;BME280;67169;50.268;8.694;2023-06-26T12:33:49;99563.13;;;26.13;44.26
77979;BME280;67169;50.268;8.694;2023-06-26T12:36:18;99576.38;;;26.43;44.40
77979;BME280;67169;50.268;8.694;2023-06-26T12:38:45;99575.09;;;27.06;42.38
77979;BME280;67169;50.268;8.694;2023-06-26T12:41:12;99580.97;;;26.61;43.39
77979;BME280;67169;50.268;8.694;2023-06-26T12:43:40;99577.81;;;26.47;43.62
77979;BME280;67169;50.268;8.694;2023-06-26T12:46:07;99577.06;;;26.71;43.89
77979;BME280;67169;50.268;8.694;2023-06-26T12:48:37;99575.91;;;26.48;43.51
77979;BME280;67169;50.268;8.694;2023-06-26T12:51:11;99577.53;;;26.67;43.30
77979;BME280;67169;50.268;8.694;2023-06-26T12:53:38;99570.88;;;26.78;43.66
77979;BME280;67169;50.268;8.694;2023-06-26T12:56:05;99568.03;;;27.12;43.22
77979;BME280;67169;50.268;8.694;2023-06-26T12:58:32;99579.69;;;26.81;43.06
77979;BME280;67169;50.268;8.694;2023-06-26T13:00:59;99582.50;;;27.06;42.85
77979;BME280;67169;50.268;8.694;2023-06-26T13:03:26;99581.38;;;26.74;43.87
77979;BME280;67169;50.268;8.694;2023-06-26T13:05:52;99590.78;;;26.55;42.75